Time;durP1;ratioP1;P1;durP2;ratioP2;P2;SDS_P1;SDS_P2;PMS_P1;PMS_P2;Temp;Humidity;BMP_temperature;BMP_pressure;BME280_temperature;BME280_humidity;BME280_pressure;Samples;Min_cycle;Max_cycle;Signal;HPM_P1;HPM_P2
2022/04/04 00:01:41;;;;;;;10.60;5.50;;;;;;;22.20;14.21;98216.66;5074283;28;20064;-75
2022/04/04 00:04:07;;;;;;;11.05;5.25;;;;;;;22.29;14.35;98209.38;5074533;28;20044;-76
2022/04/04 00:06:33;;;;;;;10.45;5.25;;;;;;;22.42;14.37;98207.63;5073140;28;20040;-76
2022/04/04 00:08:59;;;;;;;14.95;6.05;;;;;;;22.72;14.17;98212.41;5076430;28;20062;-75
2022/04/04 00:11:25;;;;;;;11.45;6.03;;;;;;;22.98;13.82;98200.44;5075062;28;20034;-75
2022/04/04 00:13:51;;;;;;;15.25;7.47;;;;;;;23.28;13.79;98203.16;5073269;28;20131;-76
2022/04/04 00:16:17;;;;;;;12.73;6.47;;;;;;;23.36;13.63;98198.25;5074009;28;20035;-75
2022/04/04 00:18:43;;;;;;;10.70;6.63;;;;;;;23.46;13.55;98204.84;5075577;28;20080;-75
2022/04/04 00:21:10;;;;;;;15.10;7.20;;;;;;;23.11;13.82;98197.81;5071774;28;20075;-75
2022/04/04 00:23:36;;;;;;;10.65;6.10;;;;;;;23.04;14.03;98209.13;5074375;28;20370;-76
2022/04/04 00:26:04;;;;;;;9.02;4.65;;;;;;;23.09;13.58;98209.44;5076854;28;20502;-75
2022/04/04 00:28:31;;;;;;;9.43;5.10;;;;;;;23.03;13.64;98202.75;5073909;28;20040;-76
2022/04/04 00:30:57;;;;;;;8.48;4.45;;;;;;;22.60;14.19;98208.19;5073577;28;20028;-75
2022/04/04 00:33:23;;;;;;;12.43;5.85;;;;;;;22.37;13.99;98216.47;5076696;28;20028;-75
2022/04/04 00:35:49;;;;;;;7.55;4.60;;;;;;;22.41;13.98;98208.00;5073679;28;20040;-76
2022/04/04 00:38:16;;;;;;;7.45;4.65;;;;;;;22.15;14.06;98209.53;5073616;28;20039;-75
2022/04/04 00:40:43;;;;;;;11.52;5.38;;;;;;;22.43;14.05;98197.19;5077133;28;20033;-76
2022/04/04 00:43:09;;;;;;;7.53;4.93;;;;;;;22.46;14.00;98197.16;5074314;28;20032;-76
2022/04/04 00:45:35;;;;;;;9.55;5.20;;;;;;;22.57;13.78;98197.78;5076455;28;20397;-76
2022/04/04 00:48:02;;;;;;;11.65;5.35;;;;;;;22.82;13.56;98194.69;5075006;28;20059;-76
2022/04/04 00:50:28;;;;;;;9.45;4.40;;;;;;;22.83;13.60;98193.47;5074066;28;20040;-76
2022/04/04 00:52:54;;;;;;;8.40;4.28;;;;;;;22.60;13.67;98198.97;5075998;28;20111;-76
2022/04/04 00:55:21;;;;;;;7.43;3.85;;;;;;;22.20;14.10;98205.47;5075858;28;20178;-76
2022/04/04 00:57:48;;;;;;;9.90;4.80;;;;;;;22.16;14.22;98197.16;5074678;28;20414;-76
2022/04/04 01:00:15;;;;;;;8.25;4.57;;;;;;;22.41;14.07;98191.22;5072050;28;20104;-76
2022/04/04 01:02:41;;;;;;;10.32;3.58;;;;;;;22.55;13.75;98191.84;5074475;28;20040;-76
2022/04/04 01:05:09;;;;;;;6.75;3.67;;;;;;;22.64;13.79;98186.53;5076667;28;20048;-76
2022/04/04 01:07:39;;;;;;;6.43;3.67;;;;;;;22.64;13.74;98180.94;5072844;28;20037;-76
2022/04/04 01:10:06;;;;;;;7.50;3.63;;;;;;;22.60;13.58;98185.81;5076754;28;20115;-76
2022/04/04 01:12:34;;;;;;;9.30;4.28;;;;;;;22.12;14.14;98178.84;5073233;28;20032;-76
2022/04/04 01:15:00;;;;;;;6.53;3.60;;;;;;;21.96;14.44;98185.03;5077699;28;20036;-76
2022/04/04 01:17:27;;;;;;;5.78;4.13;;;;;;;21.87;14.15;98190.28;5073065;28;20031;-76
2022/04/04 01:19:55;;;;;;;7.82;3.22;;;;;;;22.18;14.14;98174.34;5076703;28;20067;-76
2022/04/04 01:22:21;;;;;;;5.85;3.53;;;;;;;22.36;13.79;98172.91;5069216;28;20020;-76
2022/04/04 01:24:47;;;;;;;5.07;2.70;;;;;;;22.33;13.78;98176.56;5071990;28;20039;-76
2022/04/04 01:27:14;;;;;;;6.22;2.90;;;;;;;22.23;13.90;98183.09;5073081;28;20367;-76
2022/04/04 01:29:40;;;;;;;6.63;3.70;;;;;;;22.27;13.71;98177.44;5076396;28;20032;-76
2022/04/04 01:32:08;;;;;;;6.15;3.28;;;;;;;22.13;13.90;98180.41;5074049;28;20036;-76
2022/04/04 01:34:35;;;;;;;6.38;3.13;;;;;;;22.33;13.75;98172.97;5072419;28;20341;-75
2022/04/04 01:37:01;;;;;;;6.47;2.97;;;;;;;22.06;14.00;98166.50;5070055;28;20044;-75
2022/04/04 01:39:27;;;;;;;11.82;3.63;;;;;;;21.97;13.90;98179.00;5068600;28;20047;-75
2022/04/04 01:41:53;;;;;;;5.90;3.38;;;;;;;21.56;14.56;98175.44;5071143;28;20032;-75
2022/04/04 01:44:19;;;;;;;5.75;3.33;;;;;;;21.55;14.33;98167.47;5068396;28;20460;-75
2022/04/04 01:46:45;;;;;;;5.43;2.40;;;;;;;21.74;14.19;98166.88;5069361;28;20035;-75
2022/04/04 01:49:11;;;;;;;9.43;3.83;;;;;;;21.67;14.09;98164.16;5070273;28;20056;-75
2022/04/04 01:51:39;;;;;;;5.45;3.38;;;;;;;21.85;14.36;98156.38;5074695;28;20047;-75
2022/04/04 01:54:06;;;;;;;5.68;3.05;;;;;;;21.48;14.43;98165.53;5070176;28;20039;-76
2022/04/04 01:56:32;;;;;;;8.50;3.00;;;;;;;21.56;14.48;98164.28;5071428;28;20405;-76
2022/04/04 01:58:59;;;;;;;5.13;3.08;;;;;;;21.49;14.21;98161.56;5071776;28;20024;-75
2022/04/04 02:01:26;;;;;;;10.10;3.75;;;;;;;21.61;13.92;98163.81;5076649;28;20039;-76
2022/04/04 02:03:56;;;;;;;6.13;2.85;;;;;;;21.65;14.25;98172.16;5070334;28;20091;-76
2022/04/04 02:06:22;;;;;;;6.50;3.33;;;;;;;21.74;14.39;98164.06;5069768;28;20119;-76
2022/04/04 02:08:50;;;;;;;6.32;2.45;;;;;;;21.96;14.29;98160.63;5077678;28;20032;-76
2022/04/04 02:11:18;;;;;;;5.85;3.17;;;;;;;22.04;14.29;98164.16;5076991;28;20476;-76
2022/04/04 02:13:44;;;;;;;7.25;2.55;;;;;;;21.98;14.06;98154.66;5072509;28;20477;-76
2022/04/04 02:16:11;;;;;;;4.78;2.65;;;;;;;21.81;14.28;98148.03;5078359;28;20036;-75
2022/04/04 02:18:38;;;;;;;3.08;2.35;;;;;;;21.96;13.92;98154.28;5074834;28;20042;-75
2022/04/04 02:21:05;;;;;;;4.95;2.80;;;;;;;21.91;13.59;98146.34;5071313;28;20378;-75
2022/04/04 02:23:32;;;;;;;5.03;2.53;;;;;;;21.73;13.96;98146.50;5074145;28;20037;-77
2022/04/04 02:25:59;;;;;;;3.75;2.50;;;;;;;21.71;14.01;98142.53;5076407;28;20529;-75
2022/04/04 02:28:26;;;;;;;3.95;2.50;;;;;;;21.83;14.16;98140.00;5072956;28;20048;-75
2022/04/04 02:30:53;;;;;;;6.25;2.53;;;;;;;22.23;13.52;98127.16;5073351;28;20495;-75
2022/04/04 02:33:21;;;;;;;5.47;2.55;;;;;;;22.25;13.44;98130.31;5070759;28;20043;-76
2022/04/04 02:35:50;;;;;;;3.95;2.35;;;;;;;22.15;13.46;98130.47;5073941;28;20036;-76
2022/04/04 02:38:17;;;;;;;4.18;1.83;;;;;;;22.28;13.33;98123.88;5070068;28;20032;-76
2022/04/04 02:40:44;;;;;;;3.35;2.10;;;;;;;21.92;13.56;98117.97;5074111;28;20076;-76
2022/04/04 02:43:11;;;;;;;3.97;2.28;;;;;;;21.97;13.58;98116.69;5076030;28;20036;-76
2022/04/04 02:45:37;;;;;;;3.40;1.95;;;;;;;22.00;13.53;98116.66;5072530;28;20029;-76
2022/04/04 02:48:03;;;;;;;3.00;1.90;;;;;;;22.08;13.37;98117.34;5075299;28;20032;-76
2022/04/04 02:50:30;;;;;;;4.57;2.38;;;;;;;22.04;13.26;98119.41;5072809;28;20138;-76
2022/04/04 02:52:56;;;;;;;2.63;1.95;;;;;;;21.89;13.55;98107.59;5076400;28;20035;-76
2022/04/04 02:58:07;;;;;;;3.45;2.08;;;;;;;22.15;13.14;98099.72;5076461;28;20044;-76
2022/04/04 03:00:33;;;;;;;3.40;2.20;;;;;;;22.01;13.17;98121.03;5073279;28;20065;-76
2022/04/04 03:03:00;;;;;;;4.38;2.15;;;;;;;22.08;13.30;98111.00;5071260;28;20029;-76
2022/04/04 03:05:26;;;;;;;2.20;1.65;;;;;;;22.02;13.10;98108.66;5075284;28;21253;-76
2022/04/04 03:07:53;;;;;;;3.65;1.67;;;;;;;21.93;13.34;98113.16;5075860;28;20067;-76
2022/04/04 03:10:19;;;;;;;4.38;1.92;;;;;;;21.69;13.31;98114.22;5082525;28;20055;-76
2022/04/04 03:12:48;;;;;;;3.05;1.70;;;;;;;21.60;13.68;98122.31;5074767;28;20024;-76
2022/04/04 03:15:17;;;;;;;4.03;2.08;;;;;;;21.28;13.77;98117.09;5074132;28;20056;-76
2022/04/04 03:17:45;;;;;;;4.20;2.08;;;;;;;21.34;13.77;98121.00;5070367;28;20473;-76
2022/04/04 03:20:12;;;;;;;2.83;1.98;;;;;;;21.41;13.83;98131.28;5075114;28;20485;-76
2022/04/04 03:22:44;;;;;;;3.55;2.00;;;;;;;21.77;13.91;98130.50;5075962;28;20031;-76
2022/04/04 03:25:11;;;;;;;5.72;2.45;;;;;;;22.12;13.44;98118.13;5074021;28;20053;-76
2022/04/04 03:27:39;;;;;;;3.50;1.90;;;;;;;22.39;13.24;98120.91;5075733;28;20028;-76
2022/04/04 03:30:10;;;;;;;5.13;2.30;;;;;;;22.64;13.09;98121.38;5075298;28;20047;-76
2022/04/04 03:32:36;;;;;;;5.28;2.00;;;;;;;22.55;13.16;98118.28;5069899;28;20100;-76
2022/04/04 03:35:04;;;;;;;5.15;2.63;;;;;;;22.56;13.12;98131.06;5073891;28;20044;-76
2022/04/04 03:37:35;;;;;;;5.35;2.72;;;;;;;22.64;13.03;98118.56;5077635;28;20044;-76
2022/04/04 03:40:03;;;;;;;4.38;1.95;;;;;;;22.67;12.89;98124.13;5078098;28;20033;-76
2022/04/04 03:42:30;;;;;;;6.22;2.83;;;;;;;22.64;12.99;98118.56;5073605;28;20166;-76
2022/04/04 03:44:56;;;;;;;4.53;2.63;;;;;;;22.55;13.12;98121.09;5077290;28;20082;-77
2022/04/04 03:47:22;;;;;;;5.00;2.28;;;;;;;22.48;13.09;98113.59;5073342;28;20040;-76
2022/04/04 03:49:48;;;;;;;4.03;2.28;;;;;;;22.31;13.20;98111.06;5076577;28;20040;-77
2022/04/04 03:52:15;;;;;;;2.95;1.50;;;;;;;22.32;12.87;98121.81;5073924;28;20036;-77
2022/04/04 03:54:41;;;;;;;9.73;2.83;;;;;;;22.26;13.20;98115.13;5076366;28;20035;-77
2022/04/04 03:57:08;;;;;;;3.78;1.75;;;;;;;21.87;13.51;98115.63;5077340;28;20032;-77
2022/04/04 03:59:34;;;;;;;4.40;1.75;;;;;;;21.66;13.71;98121.44;5074323;28;20067;-77
2022/04/04 04:02:00;;;;;;;3.50;1.80;;;;;;;21.37;13.51;98120.19;5075530;28;20123;-76
2022/04/04 04:04:26;;;;;;;4.75;1.80;;;;;;;20.94;13.77;98118.94;5076682;28;20031;-76
2022/04/04 04:06:52;;;;;;;5.53;2.08;;;;;;;21.03;13.45;98114.47;5072299;28;20044;-76
2022/04/04 04:09:19;;;;;;;6.60;2.15;;;;;;;20.95;13.47;98120.53;5074971;28;20043;-76
2022/04/04 04:11:45;;;;;;;10.13;3.75;;;;;;;21.04;13.53;98102.16;5075793;28;20052;-77
2022/04/04 04:14:11;;;;;;;16.58;4.15;;;;;;;21.07;13.30;98118.09;5079313;28;20070;-76
2022/04/04 04:16:37;;;;;;;16.42;4.07;;;;;;;21.10;13.31;98100.50;5075499;28;20486;-76
2022/04/04 04:19:03;;;;;;;15.35;4.05;;;;;;;21.24;13.21;98097.56;5074196;28;20053;-76
2022/04/04 04:21:29;;;;;;;10.27;2.80;;;;;;;21.09;13.03;98103.69;5073623;28;20043;-76
2022/04/04 04:23:56;;;;;;;4.68;1.90;;;;;;;20.99;13.16;98101.75;5075078;28;20035;-76
2022/04/04 04:26:23;;;;;;;6.32;1.80;;;;;;;20.48;13.53;98108.97;5073378;28;20056;-76
2022/04/04 04:28:49;;;;;;;5.15;1.85;;;;;;;20.50;13.60;98111.31;5076772;28;20033;-76
2022/04/04 04:31:17;;;;;;;14.95;3.85;;;;;;;20.80;13.32;98103.13;5071680;28;20535;-76
2022/04/04 04:33:43;;;;;;;5.85;2.10;;;;;;;20.90;13.28;98101.44;5072889;28;20505;-75
2022/04/04 04:36:10;;;;;;;5.05;1.50;;;;;;;20.62;13.38;98099.69;5075433;28;20060;-76
2022/04/04 04:38:36;;;;;;;3.47;1.52;;;;;;;20.87;13.41;98105.84;5072618;28;20060;-76
2022/04/04 04:41:03;;;;;;;4.03;1.00;;;;;;;21.26;13.11;98106.31;5073590;28;20092;-76
2022/04/04 04:43:29;;;;;;;8.00;2.47;;;;;;;21.04;13.02;98107.72;5074694;28;20028;-76
2022/04/04 04:45:55;;;;;;;4.13;1.77;;;;;;;21.11;13.31;98109.66;5074427;28;20044;-76
2022/04/04 04:48:21;;;;;;;4.97;2.20;;;;;;;21.19;12.99;98106.38;5081635;28;20390;-76
2022/04/04 04:50:48;;;;;;;3.63;1.70;;;;;;;21.20;13.23;98112.75;5078633;28;20045;-77
2022/04/04 04:53:14;;;;;;;4.13;1.50;;;;;;;21.29;13.16;98111.06;5076531;28;20024;-77
2022/04/04 04:55:40;;;;;;;3.75;1.60;;;;;;;21.60;13.10;98111.94;5073241;28;20127;-77
2022/04/04 04:58:07;;;;;;;3.03;1.58;;;;;;;22.08;12.87;98111.75;5075850;28;20029;-77
2022/04/04 05:00:33;;;;;;;2.25;1.30;;;;;;;22.47;12.85;98108.44;5080806;28;20083;-77
2022/04/04 05:05:44;;;;;;;3.45;1.70;;;;;;;22.71;12.33;98115.66;5078004;28;20043;-77
2022/04/04 05:08:10;;;;;;;3.25;1.75;;;;;;;22.76;12.54;98117.97;5081557;28;20081;-77
2022/04/04 05:10:36;;;;;;;3.53;2.05;;;;;;;22.81;12.26;98114.72;5078518;28;20031;-77
2022/04/04 05:13:03;;;;;;;8.93;3.20;;;;;;;22.50;12.25;98111.16;5083993;28;20035;-76
2022/04/04 05:15:29;;;;;;;5.88;2.30;;;;;;;22.33;12.85;98112.22;5079321;28;20467;-77
2022/04/04 05:17:55;;;;;;;4.88;2.30;;;;;;;22.80;12.51;98118.72;5083663;28;20050;-77
2022/04/04 05:20:23;;;;;;;7.25;2.38;;;;;;;22.97;12.22;98114.84;5080843;28;20060;-77
2022/04/04 05:22:49;;;;;;;13.20;3.00;;;;;;;23.23;12.24;98113.19;5077088;28;20042;-77
2022/04/04 05:25:15;;;;;;;19.50;5.80;;;;;;;23.29;12.04;98111.50;5078989;28;20045;-77
2022/04/04 05:27:42;;;;;;;26.77;6.45;;;;;;;23.08;12.21;98120.28;5073462;28;20116;-77
2022/04/04 05:30:09;;;;;;;12.90;5.03;;;;;;;23.11;12.09;98119.41;5079908;28;20032;-77
2022/04/04 05:32:35;;;;;;;6.95;2.40;;;;;;;23.09;12.12;98119.03;5074749;28;20037;-76
2022/04/04 05:35:02;;;;;;;7.95;2.33;;;;;;;22.56;12.21;98126.28;5078633;28;20032;-76
2022/04/04 05:37:29;;;;;;;8.43;3.85;;;;;;;22.62;12.37;98123.81;5080925;28;20119;-76
2022/04/04 05:39:55;;;;;;;13.85;4.43;;;;;;;22.73;12.28;98124.44;5077730;28;20089;-77
2022/04/04 05:42:22;;;;;;;13.93;4.13;;;;;;;23.41;11.96;98119.28;5085653;28;20212;-76
2022/04/04 05:44:48;;;;;;;10.07;4.10;;;;;;;23.90;11.72;98118.31;5071928;28;20033;-77
2022/04/04 05:47:17;;;;;;;24.98;8.13;;;;;;;24.07;11.38;98124.00;5074929;28;20032;-77
2022/04/04 05:49:44;;;;;;;16.60;6.18;;;;;;;24.37;11.55;98120.94;5074512;28;20020;-76
2022/04/04 05:52:10;;;;;;;19.92;5.82;;;;;;;24.62;11.64;98115.56;5073374;28;20043;-76
2022/04/04 05:54:53;;;;;;;10.52;3.53;;;;;;;24.53;11.30;98123.78;5081221;28;20109;-76
2022/04/04 05:57:30;;;;;;;22.60;6.95;;;;;;;24.59;11.60;98117.22;5078258;28;20035;-76
2022/04/04 05:59:56;;;;;;;12.75;4.63;;;;;;;24.88;11.23;98122.19;5078811;28;20039;-77
2022/04/04 06:02:23;;;;;;;17.92;5.75;;;;;;;24.49;11.51;98120.25;5076658;28;20455;-78
2022/04/04 06:04:50;;;;;;;12.38;4.55;;;;;;;24.44;11.60;98117.97;5078746;28;20025;-78
2022/04/04 06:07:17;;;;;;;15.35;5.47;;;;;;;24.83;11.75;98126.31;5092973;28;20024;-76
2022/04/04 06:09:43;;;;;;;12.48;5.22;;;;;;;24.66;11.09;98125.50;5074675;28;20032;-77
2022/04/04 06:12:09;;;;;;;21.42;7.65;;;;;;;24.64;11.39;98121.53;5083482;28;20113;-78
2022/04/04 06:14:35;;;;;;;11.15;4.38;;;;;;;24.75;11.61;98119.25;5072177;28;20103;-78
2022/04/04 06:17:05;;;;;;;9.10;4.20;;;;;;;24.71;11.28;98112.94;5072774;28;20497;-79
2022/04/04 06:19:31;;;;;;;10.77;4.05;;;;;;;24.68;11.52;98120.22;5084821;28;20036;-79
2022/04/04 06:21:58;;;;;;;8.77;3.75;;;;;;;24.68;11.79;98111.78;5084384;28;20082;-78
2022/04/04 06:24:24;;;;;;;7.80;3.72;;;;;;;24.86;11.48;98116.19;5093210;28;20562;-79
2022/04/04 06:26:50;;;;;;;13.13;5.38;;;;;;;24.37;11.73;98120.94;5093666;28;20034;-78
2022/04/04 06:29:16;;;;;;;6.82;3.17;;;;;;;24.04;11.87;98120.81;5093536;28;20040;-79
2022/04/04 06:31:44;;;;;;;7.93;3.20;;;;;;;24.13;11.88;98120.28;5080761;28;20036;-78
2022/04/04 06:34:10;;;;;;;13.77;4.93;;;;;;;24.21;11.81;98120.91;5073533;28;20150;-79
2022/04/04 06:36:40;;;;;;;7.95;3.33;;;;;;;24.42;11.86;98117.63;5073791;28;20031;-79
2022/04/04 06:39:06;;;;;;;11.00;4.55;;;;;;;23.94;11.76;98118.25;5072921;28;20044;-79
2022/04/04 06:41:33;;;;;;;11.95;4.93;;;;;;;24.20;12.47;98122.91;5074000;28;20040;-79
2022/04/04 06:43:59;;;;;;;10.70;5.25;;;;;;;24.46;11.61;98119.13;5072883;28;20029;-79
2022/04/04 06:46:26;;;;;;;10.05;4.90;;;;;;;24.55;11.94;98124.16;5072824;28;20444;-79
2022/04/04 06:48:52;;;;;;;11.13;5.25;;;;;;;24.87;12.20;98121.41;5086560;28;20500;-79
2022/04/04 06:51:19;;;;;;;5.85;3.28;;;;;;;24.62;11.87;98115.56;5073119;28;20025;-79
2022/04/04 06:53:46;;;;;;;6.05;3.70;;;;;;;24.72;12.14;98125.75;5079003;28;20464;-80
2022/04/04 06:56:12;;;;;;;5.82;3.67;;;;;;;24.67;12.29;98127.03;5081207;28;20046;-79
2022/04/04 06:58:38;;;;;;;5.53;2.50;;;;;;;24.66;11.86;98125.50;5072598;28;20041;-79
2022/04/04 07:01:07;;;;;;;5.78;3.30;;;;;;;24.27;12.02;98122.00;5073050;28;20107;-79
2022/04/04 07:03:33;;;;;;;3.90;2.58;;;;;;;24.13;11.75;98119.50;5074546;28;20467;-79
2022/04/04 07:05:59;;;;;;;3.38;2.20;;;;;;;24.33;12.16;98112.63;5073318;28;20024;-79
2022/04/04 07:08:25;;;;;;;2.97;2.40;;;;;;;24.55;12.49;98115.72;5076787;28;20040;-79
2022/04/04 07:10:52;;;;;;;5.38;4.40;;;;;;;24.91;12.13;98122.09;5079723;28;20046;-79
2022/04/04 07:13:18;;;;;;;8.48;3.88;;;;;;;25.01;11.53;98107.00;5072779;28;20039;-79
2022/04/04 07:15:44;;;;;;;4.95;3.72;;;;;;;24.98;11.10;98102.25;5088001;28;20036;-80
2022/04/04 07:18:12;;;;;;;16.58;8.38;;;;;;;24.55;11.66;98104.50;5081025;28;20028;-80
2022/04/04 07:20:38;;;;;;;13.60;6.00;;;;;;;24.35;11.75;98107.34;5094414;28;20028;-80
2022/04/04 07:23:05;;;;;;;8.00;4.88;;;;;;;24.10;12.09;98095.09;5096922;28;20032;-80
2022/04/04 07:25:31;;;;;;;5.30;3.30;;;;;;;24.29;11.77;98094.28;5096727;28;20063;-80
2022/04/04 07:27:58;;;;;;;6.43;3.53;;;;;;;24.60;11.53;98109.56;5086629;28;20112;-79
2022/04/04 07:30:24;;;;;;;6.63;3.95;;;;;;;25.07;11.42;98096.00;5076130;28;20028;-79
2022/04/04 07:32:51;;;;;;;4.28;3.58;;;;;;;24.23;12.33;98102.41;5076673;28;20077;-79
2022/04/04 07:35:19;;;;;;;7.75;4.05;;;;;;;24.69;11.81;98104.94;5076660;28;20032;-79
2022/04/04 07:37:47;;;;;;;4.68;3.10;;;;;;;24.67;12.06;98092.56;5076110;28;20025;-79
2022/04/04 07:40:17;;;;;;;6.35;3.72;;;;;;;24.55;11.95;98090.47;5075988;28;20069;-79
2022/04/04 07:42:45;;;;;;;5.07;3.05;;;;;;;24.64;11.82;98091.41;5075978;28;20123;-79
2022/04/04 07:45:16;;;;;;;3.97;3.10;;;;;;;24.79;12.00;98093.91;5076593;28;20123;-79
2022/04/04 07:47:44;;;;;;;6.75;3.95;;;;;;;24.80;11.72;98096.28;5076425;28;20370;-79
2022/04/04 07:50:13;;;;;;;3.88;3.00;;;;;;;24.69;12.15;98090.13;5089406;28;20032;-79
2022/04/04 07:52:40;;;;;;;7.15;3.75;;;;;;;24.49;12.33;98080.97;5096386;28;20073;-79
2022/04/04 07:55:07;;;;;;;4.38;2.70;;;;;;;24.32;12.42;98082.19;5091673;28;20090;-79
2022/04/04 07:57:34;;;;;;;5.70;3.45;;;;;;;24.35;12.42;98084.09;5086009;28;20081;-79
2022/04/04 08:00:00;;;;;;;5.25;2.95;;;;;;;24.84;12.29;98082.16;5094993;28;20036;-79
2022/04/04 08:02:26;;;;;;;6.00;3.78;;;;;;;24.88;12.47;98088.50;5077997;28;20059;-80
2022/04/04 08:04:52;;;;;;;6.35;2.90;;;;;;;24.31;11.88;98084.19;5092422;28;20038;-79
2022/04/04 08:07:19;;;;;;;3.80;3.10;;;;;;;24.47;12.53;98084.22;5095981;28;20029;-80
2022/04/04 08:09:46;;;;;;;4.35;3.22;;;;;;;24.53;12.40;98076.84;5093825;28;20036;-80
2022/04/04 08:12:13;;;;;;;4.57;2.97;;;;;;;24.97;12.37;98077.44;5096447;28;20031;-80
2022/04/04 08:14:39;;;;;;;4.00;3.00;;;;;;;25.21;12.27;98079.56;5094913;28;20035;-80
2022/04/04 08:17:08;;;;;;;4.50;2.80;;;;;;;24.97;12.33;98071.81;5096264;28;20036;-80
2022/04/04 08:19:35;;;;;;;4.32;3.47;;;;;;;24.37;12.21;98062.00;5082292;28;20033;-80
2022/04/04 08:22:01;;;;;;;4.32;3.17;;;;;;;24.11;13.26;98066.59;5075737;28;20504;-81
2022/04/04 08:24:28;;;;;;;6.47;2.90;;;;;;;24.30;13.09;98060.16;5075754;28;20036;-81
2022/04/04 08:26:54;;;;;;;7.47;3.78;;;;;;;24.49;12.67;98050.09;5076100;28;20033;-81
2022/04/04 08:29:20;;;;;;;4.55;3.47;;;;;;;24.29;12.76;98052.19;5093275;28;20032;-81
2022/04/04 08:31:46;;;;;;;5.13;3.03;;;;;;;24.12;13.46;98056.19;5084154;28;20033;-81
2022/04/04 08:34:12;;;;;;;5.03;2.97;;;;;;;24.43;12.86;98054.66;5074013;28;20064;-80
2022/04/04 08:36:38;;;;;;;11.60;4.18;;;;;;;24.81;13.00;98055.72;5074419;28;20141;-80
2022/04/04 08:39:04;;;;;;;6.07;3.40;;;;;;;24.54;13.35;98055.97;5076889;28;20124;-81
2022/04/04 08:41:32;;;;;;;6.25;3.35;;;;;;;24.95;12.61;98055.38;5074900;28;20578;-81
2022/04/04 08:44:00;;;;;;;9.10;4.45;;;;;;;25.28;12.35;98062.53;5075333;28;20032;-81
2022/04/04 08:46:27;;;;;;;8.38;3.90;;;;;;;25.06;12.79;98053.09;5074987;28;20032;-80
2022/04/04 08:48:57;;;;;;;6.13;3.80;;;;;;;25.62;12.43;98052.78;5080339;28;20038;-81
2022/04/04 08:51:24;;;;;;;6.75;4.00;;;;;;;25.82;12.69;98048.56;5081644;28;20098;-80
2022/04/04 08:53:51;;;;;;;7.72;3.97;;;;;;;25.91;12.73;98042.28;5084053;28;20039;-81
2022/04/04 08:56:18;;;;;;;6.53;2.92;;;;;;;25.71;12.72;98047.31;5114033;28;20472;-81
2022/04/04 08:58:44;;;;;;;4.63;3.45;;;;;;;25.06;12.75;98049.50;5075255;28;20041;-81
2022/04/04 09:01:10;;;;;;;7.50;4.00;;;;;;;25.56;13.32;98052.53;5081423;28;20063;-81
2022/04/04 09:03:36;;;;;;;13.10;4.60;;;;;;;26.11;12.65;98037.28;5095468;28;20032;-80
2022/04/04 09:06:05;;;;;;;10.10;4.25;;;;;;;26.37;12.81;98027.59;5080882;28;20040;-79
2022/04/04 09:08:44;;;;;;;6.13;3.42;;;;;;;26.65;11.96;98028.72;5080299;28;20436;-80
2022/04/04 09:11:11;;;;;;;6.72;3.00;;;;;;;26.03;12.57;98033.06;5081237;28;20554;-80
2022/04/04 09:13:37;;;;;;;13.98;5.07;;;;;;;26.47;12.84;98026.47;5074863;28;20056;-80
2022/04/04 09:16:08;;;;;;;4.57;2.67;;;;;;;26.89;12.63;98027.09;5074735;28;20039;-81
2022/04/04 09:18:37;;;;;;;;;;;;;;;27.48;11.28;98025.47;5074984;28;20029;-80
2022/04/04 09:21:05;;;;;;;8.30;3.47;;;;;;;27.87;11.59;98016.31;5074096;28;19919;-81
2022/04/04 09:23:56;;;;;;;5.75;3.13;;;;;;;28.25;11.54;98011.22;5074470;28;20523;-81
2022/04/04 09:26:31;;;;;;;3.35;2.42;;;;;;;26.08;12.71;98019.25;5079279;28;20765;-81
2022/04/04 09:29:22;;;;;;;4.93;2.55;;;;;;;26.23;13.14;98010.38;5075007;28;20051;-81
2022/04/04 09:31:58;;;;;;;8.85;4.07;;;;;;;27.28;12.62;98012.44;5074030;28;20534;-81
2022/04/04 09:34:24;;;;;;;7.68;3.92;;;;;;;27.75;11.85;98000.28;5072392;28;20039;-81
2022/04/04 09:36:51;;;;;;;3.58;2.90;;;;;;;27.10;11.75;97997.41;5074125;28;20235;-80
2022/04/04 09:39:18;;;;;;;4.82;2.75;;;;;;;26.89;13.90;97998.94;5074040;28;20068;-81
2022/04/04 09:41:44;;;;;;;4.53;2.55;;;;;;;27.42;12.69;97997.09;5073812;28;20039;-81
2022/04/04 09:44:16;;;;;;;26.75;12.60;;;;;;;27.91;11.41;97989.53;5074682;28;20032;-81
2022/04/04 09:46:44;;;;;;;40.60;17.33;;;;;;;28.12;12.62;97990.00;5084901;28;20039;-81
2022/04/04 09:49:13;;;;;;;41.83;17.38;;;;;;;27.60;12.75;97985.91;5094279;28;20035;-81
2022/04/04 09:51:43;;;;;;;37.17;14.75;;;;;;;28.35;12.24;97975.34;5094605;28;20044;-81
2022/04/04 09:54:22;;;;;;;151.80;60.92;;;;;;;28.78;11.78;97972.31;5074504;28;20465;-81
2022/04/04 09:56:50;;;;;;;51.60;19.17;;;;;;;28.66;11.92;97968.38;5085142;28;20040;-81
2022/04/04 09:59:17;;;;;;;35.58;12.93;;;;;;;28.44;11.91;97969.72;5092090;28;20028;-81
2022/04/04 10:01:45;;;;;;;50.53;16.30;;;;;;;28.49;12.39;97963.47;5074486;28;20115;-81
2022/04/04 10:04:12;;;;;;;39.72;13.70;;;;;;;28.17;11.25;97955.50;5073492;28;20025;-80
2022/04/04 10:06:41;;;;;;;49.25;17.45;;;;;;;27.99;12.19;97951.34;5080350;28;20025;-80
2022/04/04 10:09:07;;;;;;;23.33;8.85;;;;;;;27.91;12.21;97944.38;5073224;28;20393;-80
2022/04/04 10:11:36;;;;;;;76.03;24.13;;;;;;;27.74;12.03;97951.53;5073588;28;20033;-80
2022/04/04 10:14:02;;;;;;;31.00;11.00;;;;;;;26.80;12.38;97944.53;5073577;28;20025;-80
2022/04/04 10:16:30;;;;;;;75.03;25.70;;;;;;;27.24;12.64;97946.94;5077657;28;20028;-80
2022/04/04 10:18:57;;;;;;;49.25;17.17;;;;;;;27.69;12.29;97943.66;5077524;28;20032;-80
2022/04/04 10:21:25;;;;;;;13.10;5.55;;;;;;;26.87;11.64;97933.81;5072910;28;20473;-81
2022/04/04 10:23:59;;;;;;;33.10;11.05;;;;;;;27.36;13.13;97922.75;5072264;28;20033;-81
2022/04/04 10:26:32;;;;;;;48.97;17.17;;;;;;;26.93;13.92;97934.00;5072736;28;20038;-81
2022/04/04 10:29:09;;;;;;;29.27;11.23;;;;;;;27.04;12.98;97925.97;5093952;28;20059;-81
2022/04/04 10:31:55;;;;;;;59.70;20.08;;;;;;;26.96;12.85;97924.63;5093584;28;20044;-81
2022/04/04 10:34:24;;;;;;;21.02;7.78;;;;;;;27.18;11.91;97911.34;5090478;28;20389;-81
2022/04/04 10:36:58;;;;;;;45.55;15.00;;;;;;;27.57;12.80;97918.34;5090242;28;20043;-81
2022/04/04 10:39:34;;;;;;;10.32;5.25;;;;;;;26.33;13.73;97919.16;5093755;28;20028;-82
2022/04/04 10:42:02;;;;;;;13.30;5.15;;;;;;;26.57;12.08;97911.91;5093441;28;20092;-81
2022/04/04 10:44:49;;;;;;;36.03;13.85;;;;;;;26.46;12.56;97905.88;5093388;28;20024;-81
2022/04/04 10:47:23;;;;;;;12.73;5.70;;;;;;;26.10;13.73;97897.81;5093229;28;20034;-81
2022/04/04 10:49:49;;;;;;;64.85;23.77;;;;;;;26.67;12.54;97897.47;5093339;28;20028;-81
2022/04/04 10:52:22;;;;;;;68.50;24.45;;;;;;;26.36;14.33;97904.19;5078011;28;20035;-81
2022/04/04 10:54:48;;;;;;;52.90;19.75;;;;;;;27.24;12.46;97901.84;5071192;28;20035;-81
2022/04/04 10:57:18;;;;;;;20.35;8.75;;;;;;;27.61;12.31;97894.38;5080491;28;20040;-80
2022/04/04 10:59:48;;;;;;;28.50;12.13;;;;;;;28.18;11.99;97894.97;5096382;28;20051;-80
2022/04/04 11:02:18;;;;;;;10.40;4.78;;;;;;;27.13;11.76;97893.00;5072850;28;20021;-80
2022/04/04 11:07:39;;;;;;;25.02;11.48;;;;;;;27.21;12.66;97883.00;5073152;28;20328;-81
2022/04/04 11:10:06;;;;;;;13.70;6.25;;;;;;;27.63;11.84;97879.84;5073706;28;20025;-81
2022/04/04 11:13:02;;;;;;;11.50;5.28;;;;;;;27.54;11.57;97889.03;5073012;28;20485;-81
2022/04/04 11:15:55;;;;;;;15.57;6.85;;;;;;;27.63;12.10;97879.84;5075844;28;20031;-81
2022/04/04 11:18:24;;;;;;;10.82;5.20;;;;;;;27.90;11.68;97877.13;5091777;28;20067;-81
2022/04/04 11:20:53;;;;;;;8.32;4.43;;;;;;;27.19;12.46;97870.66;5093033;28;20088;-80
2022/04/04 11:23:21;;;;;;;5.40;3.10;;;;;;;25.86;11.98;97868.44;5093242;28;20024;-80
2022/04/04 11:25:52;;;;;;;7.38;4.35;;;;;;;26.45;12.92;97868.47;5090492;28;20130;-80
2022/04/04 11:28:22;;;;;;;10.30;4.60;;;;;;;26.16;13.51;97856.63;5093358;28;20040;-80
2022/04/04 11:30:52;;;;;;;8.82;4.80;;;;;;;25.92;13.30;97853.38;5093017;28;20065;-80
2022/04/04 11:33:26;;;;;;;31.75;15.93;;;;;;;26.94;12.99;97865.13;5093211;28;20136;-80
2022/04/04 11:35:53;;;;;;;11.40;5.75;;;;;;;27.09;12.84;97857.72;5091675;28;20535;-80
2022/04/04 11:38:20;;;;;;;6.40;4.47;;;;;;;27.21;12.12;97845.59;5093108;28;20396;-80
2022/04/04 11:40:55;;;;;;;13.18;8.75;;;;;;;27.89;12.27;97850.94;5092953;28;20504;-80